sensor_id;sensor_type;location;lat;lon;timestamp;P1;durP1;ratioP1;P2;durP2;ratioP2
24411;SDS011;12544;46.760;15.942;2023-09-19T00:00:29;11.88;;;6.15;;
24411;SDS011;12544;46.760;15.942;2023-09-19T00:02:55;15.20;;;6.72;;
24411;SDS011;12544;46.760;15.942;2023-09-19T00:05:24;15.95;;;6.80;;
24411;SDS011;12544;46.760;15.942;2023-09-19T00:07:54;15.77;;;7.50;;
24411;SDS011;12544;46.760;15.942;2023-09-19T00:10:23;15.98;;;6.78;;
24411;SDS011;12544;46.760;15.942;2023-09-19T00:12:52;13.30;;;6.30;;
24411;SDS011;12544;46.760;15.942;2023-09-19T00:15:22;17.75;;;6.78;;
24411;SDS011;12544;46.760;15.942;2023-09-19T00:17:48;17.42;;;7.03;;
24411;SDS011;12544;46.760;15.942;2023-09-19T00:20:14;16.85;;;6.43;;
24411;SDS011;12544;46.760;15.942;2023-09-19T00:22:43;20.00;;;7.13;;
24411;SDS011;12544;46.760;15.942;2023-09-19T00:25:08;18.77;;;7.50;;
24411;SDS011;12544;46.760;15.942;2023-09-19T00:27:35;14.60;;;6.82;;
24411;SDS011;12544;46.760;15.942;2023-09-19T00:30:06;20.70;;;6.25;;
24411;SDS011;12544;46.760;15.942;2023-09-19T00:32:34;15.93;;;6.95;;
24411;SDS011;12544;46.760;15.942;2023-09-19T00:35:00;21.88;;;6.82;;
24411;SDS011;12544;46.760;15.942;2023-09-19T00:37:25;15.60;;;6.43;;
24411;SDS011;12544;46.760;15.942;2023-09-19T00:39:51;17.23;;;7.28;;
24411;SDS011;12544;46.760;15.942;2023-09-19T00:42:20;14.70;;;6.97;;
24411;SDS011;12544;46.760;15.942;2023-09-19T00:44:46;12.75;;;7.72;;
24411;SDS011;12544;46.760;15.942;2023-09-19T00:47:12;14.85;;;7.15;;
24411;SDS011;12544;46.760;15.942;2023-09-19T00:49:43;18.83;;;7.35;;
24411;SDS011;12544;46.760;15.942;2023-09-19T00:52:10;13.82;;;7.00;;
24411;SDS011;12544;46.760;15.942;2023-09-19T00:54:37;15.98;;;6.95;;
24411;SDS011;12544;46.760;15.942;2023-09-19T00:57:03;16.05;;;7.63;;
24411;SDS011;12544;46.760;15.942;2023-09-19T00:59:29;26.23;;;7.07;;
24411;SDS011;12544;46.760;15.942;2023-09-19T01:01:56;19.40;;;7.78;;
24411;SDS011;12544;46.760;15.942;2023-09-19T01:04:22;17.35;;;6.93;;
24411;SDS011;12544;46.760;15.942;2023-09-19T01:06:48;16.67;;;7.07;;
24411;SDS011;12544;46.760;15.942;2023-09-19T01:09:19;18.08;;;7.22;;
24411;SDS011;12544;46.760;15.942;2023-09-19T01:11:46;16.27;;;6.85;;
24411;SDS011;12544;46.760;15.942;2023-09-19T01:14:26;18.90;;;7.10;;
24411;SDS011;12544;46.760;15.942;2023-09-19T01:17:21;13.85;;;6.43;;
24411;SDS011;12544;46.760;15.942;2023-09-19T01:20:03;17.40;;;6.70;;
24411;SDS011;12544;46.760;15.942;2023-09-19T01:23:05;19.67;;;7.32;;
24411;SDS011;12544;46.760;15.942;2023-09-19T01:26:04;17.20;;;7.03;;
24411;SDS011;12544;46.760;15.942;2023-09-19T01:28:34;19.77;;;8.18;;
24411;SDS011;12544;46.760;15.942;2023-09-19T01:31:19;11.85;;;6.65;;
24411;SDS011;12544;46.760;15.942;2023-09-19T01:36:28;15.75;;;7.22;;
24411;SDS011;12544;46.760;15.942;2023-09-19T01:38:56;16.45;;;7.20;;
24411;SDS011;12544;46.760;15.942;2023-09-19T01:47:17;15.65;;;8.25;;
24411;SDS011;12544;46.760;15.942;2023-09-19T01:50:11;15.55;;;7.05;;
24411;SDS011;12544;46.760;15.942;2023-09-19T01:52:49;16.67;;;7.13;;
24411;SDS011;12544;46.760;15.942;2023-09-19T01:55:22;19.45;;;7.43;;
24411;SDS011;12544;46.760;15.942;2023-09-19T01:57:54;17.52;;;8.98;;
24411;SDS011;12544;46.760;15.942;2023-09-19T02:00:24;15.52;;;7.65;;
24411;SDS011;12544;46.760;15.942;2023-09-19T02:02:52;11.73;;;7.40;;
24411;SDS011;12544;46.760;15.942;2023-09-19T02:05:24;18.00;;;7.53;;
24411;SDS011;12544;46.760;15.942;2023-09-19T02:07:51;15.18;;;8.85;;
24411;SDS011;12544;46.760;15.942;2023-09-19T02:10:18;11.80;;;5.97;;
24411;SDS011;12544;46.760;15.942;2023-09-19T02:12:44;15.80;;;7.70;;
24411;SDS011;12544;46.760;15.942;2023-09-19T02:15:10;15.40;;;7.85;;
24411;SDS011;12544;46.760;15.942;2023-09-19T02:17:36;14.02;;;8.02;;
24411;SDS011;12544;46.760;15.942;2023-09-19T02:20:01;19.48;;;7.38;;
24411;SDS011;12544;46.760;15.942;2023-09-19T02:22:28;16.80;;;7.20;;
24411;SDS011;12544;46.760;15.942;2023-09-19T02:24:54;17.60;;;6.53;;
24411;SDS011;12544;46.760;15.942;2023-09-19T02:27:23;14.48;;;6.70;;
24411;SDS011;12544;46.760;15.942;2023-09-19T02:29:49;14.15;;;7.50;;
24411;SDS011;12544;46.760;15.942;2023-09-19T02:32:14;9.90;;;6.63;;
24411;SDS011;12544;46.760;15.942;2023-09-19T02:34:42;11.55;;;6.13;;
24411;SDS011;12544;46.760;15.942;2023-09-19T02:37:09;12.75;;;6.90;;
24411;SDS011;12544;46.760;15.942;2023-09-19T02:39:35;21.75;;;8.52;;
24411;SDS011;12544;46.760;15.942;2023-09-19T02:42:01;11.80;;;7.93;;
24411;SDS011;12544;46.760;15.942;2023-09-19T02:44:29;19.70;;;8.63;;
24411;SDS011;12544;46.760;15.942;2023-09-19T02:46:54;16.77;;;9.50;;
24411;SDS011;12544;46.760;15.942;2023-09-19T02:49:22;11.75;;;7.80;;
24411;SDS011;12544;46.760;15.942;2023-09-19T02:51:48;18.27;;;9.82;;
24411;SDS011;12544;46.760;15.942;2023-09-19T02:54:14;18.85;;;9.75;;
24411;SDS011;12544;46.760;15.942;2023-09-19T02:56:40;17.55;;;9.80;;
24411;SDS011;12544;46.760;15.942;2023-09-19T02:59:06;23.08;;;9.63;;
24411;SDS011;12544;46.760;15.942;2023-09-19T03:01:35;17.65;;;9.55;;
24411;SDS011;12544;46.760;15.942;2023-09-19T03:04:02;14.07;;;10.15;;
24411;SDS011;12544;46.760;15.942;2023-09-19T03:06:28;15.63;;;8.85;;
24411;SDS011;12544;46.760;15.942;2023-09-19T03:08:56;17.73;;;7.32;;
24411;SDS011;12544;46.760;15.942;2023-09-19T03:11:21;12.48;;;6.32;;
24411;SDS011;12544;46.760;15.942;2023-09-19T03:13:54;14.50;;;5.15;;
24411;SDS011;12544;46.760;15.942;2023-09-19T03:16:20;7.72;;;3.97;;
24411;SDS011;12544;46.760;15.942;2023-09-19T03:18:50;4.72;;;2.60;;
24411;SDS011;12544;46.760;15.942;2023-09-19T03:21:16;3.95;;;1.60;;
24411;SDS011;12544;46.760;15.942;2023-09-19T03:23:42;2.17;;;1.42;;
24411;SDS011;12544;46.760;15.942;2023-09-19T03:26:12;4.03;;;1.80;;
24411;SDS011;12544;46.760;15.942;2023-09-19T03:28:41;3.42;;;1.60;;
24411;SDS011;12544;46.760;15.942;2023-09-19T03:31:08;3.20;;;1.20;;
24411;SDS011;12544;46.760;15.942;2023-09-19T03:33:34;2.15;;;1.20;;
24411;SDS011;12544;46.760;15.942;2023-09-19T03:36:00;1.70;;;1.10;;
24411;SDS011;12544;46.760;15.942;2023-09-19T03:38:29;3.33;;;1.50;;
24411;SDS011;12544;46.760;15.942;2023-09-19T03:40:55;5.85;;;1.85;;
24411;SDS011;12544;46.760;15.942;2023-09-19T03:43:21;3.65;;;1.50;;
24411;SDS011;12544;46.760;15.942;2023-09-19T03:45:46;2.15;;;1.20;;
24411;SDS011;12544;46.760;15.942;2023-09-19T03:48:13;4.60;;;1.23;;
24411;SDS011;12544;46.760;15.942;2023-09-19T03:50:39;3.40;;;1.50;;
24411;SDS011;12544;46.760;15.942;2023-09-19T03:53:05;4.90;;;1.70;;
24411;SDS011;12544;46.760;15.942;2023-09-19T03:55:32;4.15;;;1.63;;
24411;SDS011;12544;46.760;15.942;2023-09-19T03:58:00;2.47;;;1.40;;
24411;SDS011;12544;46.760;15.942;2023-09-19T04:00:29;4.82;;;1.48;;
24411;SDS011;12544;46.760;15.942;2023-09-19T04:02:55;3.60;;;1.73;;
24411;SDS011;12544;46.760;15.942;2023-09-19T04:05:21;2.25;;;1.60;;
24411;SDS011;12544;46.760;15.942;2023-09-19T04:07:47;2.95;;;1.60;;
24411;SDS011;12544;46.760;15.942;2023-09-19T04:10:13;5.40;;;1.50;;
24411;SDS011;12544;46.760;15.942;2023-09-19T04:12:39;2.22;;;1.42;;
24411;SDS011;12544;46.760;15.942;2023-09-19T04:15:05;4.68;;;1.70;;
24411;SDS011;12544;46.760;15.942;2023-09-19T04:17:32;3.30;;;1.38;;
24411;SDS011;12544;46.760;15.942;2023-09-19T04:20:00;2.08;;;1.30;;
24411;SDS011;12544;46.760;15.942;2023-09-19T04:22:26;3.05;;;1.35;;
24411;SDS011;12544;46.760;15.942;2023-09-19T04:24:51;2.00;;;1.30;;
24411;SDS011;12544;46.760;15.942;2023-09-19T04:27:17;3.83;;;1.40;;
24411;SDS011;12544;46.760;15.942;2023-09-19T04:29:43;3.50;;;1.33;;
24411;SDS011;12544;46.760;15.942;2023-09-19T04:32:09;3.30;;;1.65;;
24411;SDS011;12544;46.760;15.942;2023-09-19T04:34:35;6.93;;;2.17;;
24411;SDS011;12544;46.760;15.942;2023-09-19T04:37:10;5.10;;;1.80;;
24411;SDS011;12544;46.760;15.942;2023-09-19T04:39:36;4.63;;;1.77;;
24411;SDS011;12544;46.760;15.942;2023-09-19T04:42:01;9.18;;;2.55;;
24411;SDS011;12544;46.760;15.942;2023-09-19T04:44:28;6.07;;;3.70;;
24411;SDS011;12544;46.760;15.942;2023-09-19T04:46:54;6.22;;;4.10;;
24411;SDS011;12544;46.760;15.942;2023-09-19T04:49:19;5.95;;;3.85;;
24411;SDS011;12544;46.760;15.942;2023-09-19T04:51:45;7.43;;;4.55;;
24411;SDS011;12544;46.760;15.942;2023-09-19T04:54:12;6.85;;;4.00;;
24411;SDS011;12544;46.760;15.942;2023-09-19T04:56:38;7.75;;;4.47;;
24411;SDS011;12544;46.760;15.942;2023-09-19T04:59:05;6.70;;;4.35;;
24411;SDS011;12544;46.760;15.942;2023-09-19T05:01:32;7.50;;;4.95;;
24411;SDS011;12544;46.760;15.942;2023-09-19T05:03:58;6.47;;;4.47;;
24411;SDS011;12544;46.760;15.942;2023-09-19T05:06:23;7.28;;;4.53;;
24411;SDS011;12544;46.760;15.942;2023-09-19T05:08:51;7.32;;;4.40;;
24411;SDS011;12544;46.760;15.942;2023-09-19T05:11:18;11.13;;;5.72;;
24411;SDS011;12544;46.760;15.942;2023-09-19T05:13:44;9.20;;;5.80;;
24411;SDS011;12544;46.760;15.942;2023-09-19T05:16:10;11.27;;;5.40;;
24411;SDS011;12544;46.760;15.942;2023-09-19T05:18:36;11.48;;;5.60;;
24411;SDS011;12544;46.760;15.942;2023-09-19T05:21:02;9.57;;;5.72;;
24411;SDS011;12544;46.760;15.942;2023-09-19T05:23:28;12.27;;;5.95;;
24411;SDS011;12544;46.760;15.942;2023-09-19T05:25:53;11.65;;;6.68;;
24411;SDS011;12544;46.760;15.942;2023-09-19T05:28:21;7.20;;;5.22;;
24411;SDS011;12544;46.760;15.942;2023-09-19T05:30:47;6.47;;;5.15;;
24411;SDS011;12544;46.760;15.942;2023-09-19T05:33:14;9.88;;;5.50;;
24411;SDS011;12544;46.760;15.942;2023-09-19T05:35:39;7.03;;;5.30;;
24411;SDS011;12544;46.760;15.942;2023-09-19T05:38:07;8.80;;;5.13;;
24411;SDS011;12544;46.760;15.942;2023-09-19T05:40:37;11.23;;;4.75;;
24411;SDS011;12544;46.760;15.942;2023-09-19T05:43:08;7.53;;;4.45;;
24411;SDS011;12544;46.760;15.942;2023-09-19T05:45:34;7.00;;;4.32;;
24411;SDS011;12544;46.760;15.942;2023-09-19T05:48:09;7.75;;;4.45;;
24411;SDS011;12544;46.760;15.942;2023-09-19T05:50:36;7.05;;;4.68;;
24411;SDS011;12544;46.760;15.942;2023-09-19T05:53:03;9.23;;;4.35;;
24411;SDS011;12544;46.760;15.942;2023-09-19T05:55:29;8.52;;;4.78;;
24411;SDS011;12544;46.760;15.942;2023-09-19T05:57:55;8.23;;;4.47;;
24411;SDS011;12544;46.760;15.942;2023-09-19T06:00:21;5.53;;;3.97;;
24411;SDS011;12544;46.760;15.942;2023-09-19T06:02:55;5.40;;;3.78;;
24411;SDS011;12544;46.760;15.942;2023-09-19T06:05:22;8.38;;;3.75;;
24411;SDS011;12544;46.760;15.942;2023-09-19T06:07:49;4.28;;;3.88;;
24411;SDS011;12544;46.760;15.942;2023-09-19T06:10:17;9.23;;;3.83;;
24411;SDS011;12544;46.760;15.942;2023-09-19T06:12:43;11.40;;;4.50;;
24411;SDS011;12544;46.760;15.942;2023-09-19T06:15:09;8.55;;;4.18;;
24411;SDS011;12544;46.760;15.942;2023-09-19T06:17:46;6.75;;;3.88;;
24411;SDS011;12544;46.760;15.942;2023-09-19T06:20:15;5.65;;;3.67;;
24411;SDS011;12544;46.760;15.942;2023-09-19T06:22:42;5.45;;;3.67;;
24411;SDS011;12544;46.760;15.942;2023-09-19T06:25:13;5.80;;;4.00;;
24411;SDS011;12544;46.760;15.942;2023-09-19T06:27:47;6.63;;;3.88;;
24411;SDS011;12544;46.760;15.942;2023-09-19T06:30:18;4.25;;;3.22;;
24411;SDS011;12544;46.760;15.942;2023-09-19T06:32:44;7.82;;;3.60;;
24411;SDS011;12544;46.760;15.942;2023-09-19T06:35:13;6.60;;;4.28;;
24411;SDS011;12544;46.760;15.942;2023-09-19T06:37:40;4.57;;;2.42;;
24411;SDS011;12544;46.760;15.942;2023-09-19T06:40:10;4.78;;;2.90;;
24411;SDS011;12544;46.760;15.942;2023-09-19T06:42:43;3.08;;;2.65;;
24411;SDS011;12544;46.760;15.942;2023-09-19T06:45:13;6.43;;;3.35;;
24411;SDS011;12544;46.760;15.942;2023-09-19T06:47:43;3.30;;;2.20;;
24411;SDS011;12544;46.760;15.942;2023-09-19T06:50:10;4.70;;;2.40;;
24411;SDS011;12544;46.760;15.942;2023-09-19T06:52:39;4.55;;;2.60;;
24411;SDS011;12544;46.760;15.942;2023-09-19T06:55:08;3.42;;;2.47;;
24411;SDS011;12544;46.760;15.942;2023-09-19T06:57:39;4.65;;;2.83;;
24411;SDS011;12544;46.760;15.942;2023-09-19T07:00:11;9.80;;;3.92;;
24411;SDS011;12544;46.760;15.942;2023-09-19T07:02:59;4.28;;;3.85;;
24411;SDS011;12544;46.760;15.942;2023-09-19T07:05:26;6.13;;;3.22;;
24411;SDS011;12544;46.760;15.942;2023-09-19T07:07:53;5.78;;;3.53;;
24411;SDS011;12544;46.760;15.942;2023-09-19T07:10:24;4.38;;;3.28;;
24411;SDS011;12544;46.760;15.942;2023-09-19T07:12:56;4.40;;;2.80;;
24411;SDS011;12544;46.760;15.942;2023-09-19T07:15:26;5.82;;;2.85;;
24411;SDS011;12544;46.760;15.942;2023-09-19T07:17:53;4.93;;;2.53;;
24411;SDS011;12544;46.760;15.942;2023-09-19T07:20:19;4.38;;;2.53;;
24411;SDS011;12544;46.760;15.942;2023-09-19T07:22:45;4.20;;;2.40;;
24411;SDS011;12544;46.760;15.942;2023-09-19T07:25:19;3.45;;;2.08;;
24411;SDS011;12544;46.760;15.942;2023-09-19T07:27:44;3.20;;;2.28;;
24411;SDS011;12544;46.760;15.942;2023-09-19T07:30:10;2.88;;;2.00;;
24411;SDS011;12544;46.760;15.942;2023-09-19T07:32:36;5.78;;;3.03;;
24411;SDS011;12544;46.760;15.942;2023-09-19T07:35:03;3.55;;;2.17;;
24411;SDS011;12544;46.760;15.942;2023-09-19T07:37:30;5.40;;;2.13;;
24411;SDS011;12544;46.760;15.942;2023-09-19T07:40:07;3.38;;;2.33;;
24411;SDS011;12544;46.760;15.942;2023-09-19T07:42:37;4.78;;;2.42;;
24411;SDS011;12544;46.760;15.942;2023-09-19T07:45:06;9.73;;;2.88;;
24411;SDS011;12544;46.760;15.942;2023-09-19T07:47:33;3.13;;;2.28;;
24411;SDS011;12544;46.760;15.942;2023-09-19T07:49:59;3.70;;;2.03;;
24411;SDS011;12544;46.760;15.942;2023-09-19T07:52:27;5.20;;;2.60;;
24411;SDS011;12544;46.760;15.942;2023-09-19T07:54:54;8.32;;;2.63;;
24411;SDS011;12544;46.760;15.942;2023-09-19T07:57:20;5.38;;;2.92;;
24411;SDS011;12544;46.760;15.942;2023-09-19T07:59:45;5.40;;;2.63;;
24411;SDS011;12544;46.760;15.942;2023-09-19T08:02:11;7.85;;;3.33;;
24411;SDS011;12544;46.760;15.942;2023-09-19T08:04:43;7.68;;;3.63;;
24411;SDS011;12544;46.760;15.942;2023-09-19T08:07:11;4.63;;;2.95;;
24411;SDS011;12544;46.760;15.942;2023-09-19T08:09:38;5.53;;;3.90;;
24411;SDS011;12544;46.760;15.942;2023-09-19T08:12:05;6.03;;;3.70;;
24411;SDS011;12544;46.760;15.942;2023-09-19T08:14:32;5.18;;;3.67;;
24411;SDS011;12544;46.760;15.942;2023-09-19T08:16:58;6.10;;;3.88;;
24411;SDS011;12544;46.760;15.942;2023-09-19T08:19:25;5.03;;;3.65;;
24411;SDS011;12544;46.760;15.942;2023-09-19T08:21:58;6.43;;;3.13;;
24411;SDS011;12544;46.760;15.942;2023-09-19T08:24:25;5.20;;;3.60;;
24411;SDS011;12544;46.760;15.942;2023-09-19T08:26:53;3.17;;;2.40;;
24411;SDS011;12544;46.760;15.942;2023-09-19T08:29:25;4.18;;;3.10;;
24411;SDS011;12544;46.760;15.942;2023-09-19T08:31:56;4.05;;;3.10;;
24411;SDS011;12544;46.760;15.942;2023-09-19T08:34:22;6.57;;;3.60;;
24411;SDS011;12544;46.760;15.942;2023-09-19T08:36:52;4.82;;;2.67;;
24411;SDS011;12544;46.760;15.942;2023-09-19T08:39:21;5.78;;;3.35;;
24411;SDS011;12544;46.760;15.942;2023-09-19T08:41:47;4.78;;;2.70;;
24411;SDS011;12544;46.760;15.942;2023-09-19T08:44:13;4.22;;;2.80;;
24411;SDS011;12544;46.760;15.942;2023-09-19T08:46:40;3.90;;;2.85;;
24411;SDS011;12544;46.760;15.942;2023-09-19T08:52:07;5.47;;;2.75;;
24411;SDS011;12544;46.760;15.942;2023-09-19T08:54:55;3.40;;;2.92;;
24411;SDS011;12544;46.760;15.942;2023-09-19T08:57:27;3.70;;;2.10;;
24411;SDS011;12544;46.760;15.942;2023-09-19T08:59:54;3.08;;;2.50;;
24411;SDS011;12544;46.760;15.942;2023-09-19T09:02:21;3.92;;;2.30;;
24411;SDS011;12544;46.760;15.942;2023-09-19T09:04:48;5.05;;;2.50;;
24411;SDS011;12544;46.760;15.942;2023-09-19T09:07:15;2.97;;;2.17;;
24411;SDS011;12544;46.760;15.942;2023-09-19T09:09:44;3.33;;;2.40;;
24411;SDS011;12544;46.760;15.942;2023-09-19T09:12:13;2.78;;;1.70;;
24411;SDS011;12544;46.760;15.942;2023-09-19T09:14:40;3.78;;;2.05;;
24411;SDS011;12544;46.760;15.942;2023-09-19T09:17:10;3.58;;;2.22;;
24411;SDS011;12544;46.760;15.942;2023-09-19T09:19:37;3.33;;;1.98;;
24411;SDS011;12544;46.760;15.942;2023-09-19T09:22:09;4.28;;;2.15;;
24411;SDS011;12544;46.760;15.942;2023-09-19T09:24:36;2.55;;;1.83;;
24411;SDS011;12544;46.760;15.942;2023-09-19T09:27:04;3.22;;;1.50;;
24411;SDS011;12544;46.760;15.942;2023-09-19T09:29:45;1.77;;;1.55;;
24411;SDS011;12544;46.760;15.942;2023-09-19T09:34:53;3.13;;;1.90;;
24411;SDS011;12544;46.760;15.942;2023-09-19T09:37:38;1.95;;;1.30;;
24411;SDS011;12544;46.760;15.942;2023-09-19T09:40:04;2.63;;;1.40;;
24411;SDS011;12544;46.760;15.942;2023-09-19T09:42:39;2.47;;;1.20;;
24411;SDS011;12544;46.760;15.942;2023-09-19T09:45:19;2.50;;;1.30;;
24411;SDS011;12544;46.760;15.942;2023-09-19T09:47:57;2.85;;;1.10;;
24411;SDS011;12544;46.760;15.942;2023-09-19T09:50:25;1.70;;;1.40;;
24411;SDS011;12544;46.760;15.942;2023-09-19T09:53:05;1.20;;;1.00;;
24411;SDS011;12544;46.760;15.942;2023-09-19T09:55:57;2.95;;;1.10;;
24411;SDS011;12544;46.760;15.942;2023-09-19T10:01:54;1.67;;;1.35;;
24411;SDS011;12544;46.760;15.942;2023-09-19T10:04:28;2.67;;;0.90;;
24411;SDS011;12544;46.760;15.942;2023-09-19T10:07:23;2.55;;;1.20;;
24411;SDS011;12544;46.760;15.942;2023-09-19T10:09:58;1.35;;;1.00;;
24411;SDS011;12544;46.760;15.942;2023-09-19T10:15:53;1.83;;;1.00;;
24411;SDS011;12544;46.760;15.942;2023-09-19T10:20:47;1.52;;;0.90;;
24411;SDS011;12544;46.760;15.942;2023-09-19T10:23:14;1.23;;;0.85;;
24411;SDS011;12544;46.760;15.942;2023-09-19T10:25:47;0.90;;;0.90;;
24411;SDS011;12544;46.760;15.942;2023-09-19T10:28:14;1.73;;;1.13;;
24411;SDS011;12544;46.760;15.942;2023-09-19T10:30:45;5.38;;;1.40;;
24411;SDS011;12544;46.760;15.942;2023-09-19T10:36:33;1.83;;;0.80;;
24411;SDS011;12544;46.760;15.942;2023-09-19T10:39:01;0.73;;;0.60;;
24411;SDS011;12544;46.760;15.942;2023-09-19T10:41:32;1.88;;;0.85;;
24411;SDS011;12544;46.760;15.942;2023-09-19T10:44:02;1.60;;;0.70;;
24411;SDS011;12544;46.760;15.942;2023-09-19T10:46:30;2.33;;;1.00;;
24411;SDS011;12544;46.760;15.942;2023-09-19T10:49:00;0.80;;;0.80;;
24411;SDS011;12544;46.760;15.942;2023-09-19T10:51:31;1.60;;;0.88;;
24411;SDS011;12544;46.760;15.942;2023-09-19T10:56:38;2.63;;;1.00;;
24411;SDS011;12544;46.760;15.942;2023-09-19T10:59:11;1.98;;;0.90;;
24411;SDS011;12544;46.760;15.942;2023-09-19T11:01:41;2.65;;;1.15;;
24411;SDS011;12544;46.760;15.942;2023-09-19T11:07:07;1.63;;;1.10;;
24411;SDS011;12544;46.760;15.942;2023-09-19T11:12:12;1.35;;;0.90;;
24411;SDS011;12544;46.760;15.942;2023-09-19T11:14:57;1.70;;;1.00;;
24411;SDS011;12544;46.760;15.942;2023-09-19T11:17:31;1.55;;;0.90;;
24411;SDS011;12544;46.760;15.942;2023-09-19T11:30:37;1.88;;;0.80;;
24411;SDS011;12544;46.760;15.942;2023-09-19T11:33:20;3.10;;;0.80;;
24411;SDS011;12544;46.760;15.942;2023-09-19T11:36:14;2.08;;;0.90;;
24411;SDS011;12544;46.760;15.942;2023-09-19T11:47:14;1.10;;;0.80;;
24411;SDS011;12544;46.760;15.942;2023-09-19T11:49:18;2.83;;;0.90;;
24411;SDS011;12544;46.760;15.942;2023-09-19T11:51:48;1.33;;;1.00;;
24411;SDS011;12544;46.760;15.942;2023-09-19T11:54:16;1.00;;;0.90;;
24411;SDS011;12544;46.760;15.942;2023-09-19T11:56:50;1.13;;;0.90;;
24411;SDS011;12544;46.760;15.942;2023-09-19T11:59:20;1.20;;;1.00;;
24411;SDS011;12544;46.760;15.942;2023-09-19T12:04:40;1.50;;;1.00;;
24411;SDS011;12544;46.760;15.942;2023-09-19T12:07:09;2.33;;;1.02;;
24411;SDS011;12544;46.760;15.942;2023-09-19T12:12:22;2.55;;;0.98;;
24411;SDS011;12544;46.760;15.942;2023-09-19T12:14:52;1.20;;;1.02;;
24411;SDS011;12544;46.760;15.942;2023-09-19T12:17:19;1.35;;;1.00;;
24411;SDS011;12544;46.760;15.942;2023-09-19T12:19:51;1.48;;;0.90;;
24411;SDS011;12544;46.760;15.942;2023-09-19T12:25:42;2.17;;;1.15;;
24411;SDS011;12544;46.760;15.942;2023-09-19T12:28:17;1.60;;;1.00;;
24411;SDS011;12544;46.760;15.942;2023-09-19T12:30:49;1.88;;;1.08;;
24411;SDS011;12544;46.760;15.942;2023-09-19T12:33:15;1.75;;;0.95;;
24411;SDS011;12544;46.760;15.942;2023-09-19T12:35:44;3.25;;;1.20;;
24411;SDS011;12544;46.760;15.942;2023-09-19T12:38:10;1.58;;;1.15;;
24411;SDS011;12544;46.760;15.942;2023-09-19T12:40:37;2.08;;;1.00;;
24411;SDS011;12544;46.760;15.942;2023-09-19T12:46:07;1.38;;;0.98;;
24411;SDS011;12544;46.760;15.942;2023-09-19T12:48:33;4.53;;;1.15;;
24411;SDS011;12544;46.760;15.942;2023-09-19T12:53:41;1.13;;;0.95;;
24411;SDS011;12544;46.760;15.942;2023-09-19T12:56:09;3.45;;;1.02;;
24411;SDS011;12544;46.760;15.942;2023-09-19T12:58:50;1.52;;;0.93;;
24411;SDS011;12544;46.760;15.942;2023-09-19T13:01:19;2.28;;;1.25;;
24411;SDS011;12544;46.760;15.942;2023-09-19T13:03:45;1.67;;;0.80;;
24411;SDS011;12544;46.760;15.942;2023-09-19T13:06:11;1.20;;;1.10;;
24411;SDS011;12544;46.760;15.942;2023-09-19T13:08:38;1.23;;;1.10;;
24411;SDS011;12544;46.760;15.942;2023-09-19T13:11:13;1.88;;;1.00;;
24411;SDS011;12544;46.760;15.942;2023-09-19T13:13:46;2.38;;;1.25;;
24411;SDS011;12544;46.760;15.942;2023-09-19T13:16:14;1.50;;;0.90;;
24411;SDS011;12544;46.760;15.942;2023-09-19T13:18:51;1.10;;;0.90;;
24411;SDS011;12544;46.760;15.942;2023-09-19T13:21:29;1.48;;;1.10;;
24411;SDS011;12544;46.760;15.942;2023-09-19T13:24:21;2.35;;;1.17;;
24411;SDS011;12544;46.760;15.942;2023-09-19T13:30:14;4.95;;;1.02;;
24411;SDS011;12544;46.760;15.942;2023-09-19T13:32:40;1.20;;;0.93;;
24411;SDS011;12544;46.760;15.942;2023-09-19T13:35:07;1.35;;;0.88;;
24411;SDS011;12544;46.760;15.942;2023-09-19T13:37:38;1.20;;;0.90;;
24411;SDS011;12544;46.760;15.942;2023-09-19T13:40:08;1.00;;;0.90;;
24411;SDS011;12544;46.760;15.942;2023-09-19T13:42:34;2.20;;;0.98;;
24411;SDS011;12544;46.760;15.942;2023-09-19T13:45:01;1.42;;;1.00;;
24411;SDS011;12544;46.760;15.942;2023-09-19T13:50:15;1.48;;;0.80;;
24411;SDS011;12544;46.760;15.942;2023-09-19T13:52:41;1.17;;;0.85;;
24411;SDS011;12544;46.760;15.942;2023-09-19T13:55:07;0.85;;;0.80;;
24411;SDS011;12544;46.760;15.942;2023-09-19T13:57:33;1.00;;;0.90;;
24411;SDS011;12544;46.760;15.942;2023-09-19T13:59:59;1.55;;;0.90;;
24411;SDS011;12544;46.760;15.942;2023-09-19T14:02:24;1.73;;;0.80;;
24411;SDS011;12544;46.760;15.942;2023-09-19T14:04:53;1.67;;;0.85;;
24411;SDS011;12544;46.760;15.942;2023-09-19T14:07:20;1.70;;;0.93;;
24411;SDS011;12544;46.760;15.942;2023-09-19T14:09:52;1.23;;;1.13;;
24411;SDS011;12544;46.760;15.942;2023-09-19T14:12:18;1.95;;;0.90;;
24411;SDS011;12544;46.760;15.942;2023-09-19T14:14:44;2.05;;;1.23;;
24411;SDS011;12544;46.760;15.942;2023-09-19T14:17:10;1.73;;;0.93;;
24411;SDS011;12544;46.760;15.942;2023-09-19T14:19:35;2.05;;;1.58;;
24411;SDS011;12544;46.760;15.942;2023-09-19T14:22:02;1.75;;;1.25;;
24411;SDS011;12544;46.760;15.942;2023-09-19T14:27:49;2.50;;;0.88;;
24411;SDS011;12544;46.760;15.942;2023-09-19T14:30:15;1.27;;;1.05;;
24411;SDS011;12544;46.760;15.942;2023-09-19T14:32:40;2.65;;;1.20;;
24411;SDS011;12544;46.760;15.942;2023-09-19T14:35:07;1.67;;;1.20;;
24411;SDS011;12544;46.760;15.942;2023-09-19T14:37:34;1.92;;;1.00;;
24411;SDS011;12544;46.760;15.942;2023-09-19T14:40:00;2.13;;;0.90;;
24411;SDS011;12544;46.760;15.942;2023-09-19T14:42:28;1.33;;;0.98;;
24411;SDS011;12544;46.760;15.942;2023-09-19T14:44:54;1.77;;;1.30;;
24411;SDS011;12544;46.760;15.942;2023-09-19T14:47:20;1.10;;;0.90;;
24411;SDS011;12544;46.760;15.942;2023-09-19T14:49:46;1.20;;;1.00;;
24411;SDS011;12544;46.760;15.942;2023-09-19T14:52:11;2.63;;;0.90;;
24411;SDS011;12544;46.760;15.942;2023-09-19T14:54:40;1.52;;;1.00;;
24411;SDS011;12544;46.760;15.942;2023-09-19T14:57:15;2.28;;;1.10;;
24411;SDS011;12544;46.760;15.942;2023-09-19T14:59:41;0.80;;;0.80;;
24411;SDS011;12544;46.760;15.942;2023-09-19T15:02:06;1.05;;;0.90;;
24411;SDS011;12544;46.760;15.942;2023-09-19T15:04:32;1.52;;;0.85;;
24411;SDS011;12544;46.760;15.942;2023-09-19T15:06:58;1.15;;;0.93;;
24411;SDS011;12544;46.760;15.942;2023-09-19T15:09:24;1.70;;;0.90;;
24411;SDS011;12544;46.760;15.942;2023-09-19T15:11:54;1.38;;;1.10;;
24411;SDS011;12544;46.760;15.942;2023-09-19T15:14:24;1.67;;;1.00;;
24411;SDS011;12544;46.760;15.942;2023-09-19T15:16:54;1.42;;;1.05;;
24411;SDS011;12544;46.760;15.942;2023-09-19T15:19:20;1.23;;;1.00;;
24411;SDS011;12544;46.760;15.942;2023-09-19T15:24:16;2.58;;;1.20;;
24411;SDS011;12544;46.760;15.942;2023-09-19T15:26:43;1.90;;;1.20;;
24411;SDS011;12544;46.760;15.942;2023-09-19T15:29:09;1.58;;;1.02;;
24411;SDS011;12544;46.760;15.942;2023-09-19T15:31:37;1.77;;;0.90;;
24411;SDS011;12544;46.760;15.942;2023-09-19T15:34:03;2.13;;;1.30;;
24411;SDS011;12544;46.760;15.942;2023-09-19T15:36:30;1.40;;;1.15;;
24411;SDS011;12544;46.760;15.942;2023-09-19T15:38:59;1.35;;;1.13;;
24411;SDS011;12544;46.760;15.942;2023-09-19T15:41:40;2.33;;;1.30;;
24411;SDS011;12544;46.760;15.942;2023-09-19T15:44:14;1.98;;;1.35;;
24411;SDS011;12544;46.760;15.942;2023-09-19T15:46:40;2.97;;;1.30;;
24411;SDS011;12544;46.760;15.942;2023-09-19T15:49:06;1.40;;;1.13;;
24411;SDS011;12544;46.760;15.942;2023-09-19T15:51:32;1.63;;;1.30;;
24411;SDS011;12544;46.760;15.942;2023-09-19T15:53:58;1.55;;;1.13;;
24411;SDS011;12544;46.760;15.942;2023-09-19T15:56:28;2.08;;;1.30;;
24411;SDS011;12544;46.760;15.942;2023-09-19T15:58:54;1.58;;;1.20;;
24411;SDS011;12544;46.760;15.942;2023-09-19T16:01:20;3.03;;;1.38;;